createdAt,value
2019-02-09T00:02:14.647Z,0.86
2019-02-09T00:05:15.173Z,0.98
2019-02-09T00:07:43.710Z,0.89
2019-02-09T00:10:14.146Z,0.98
2019-02-09T00:13:05.282Z,1.05
2019-02-09T00:15:35.874Z,1.09
2019-02-09T00:18:12.990Z,1.18
2019-02-09T00:21:14.042Z,1.14
2019-02-09T00:23:56.978Z,1.19
2019-02-09T00:26:27.278Z,1.33
2019-02-09T00:29:05.965Z,1.39
2019-02-09T00:32:05.550Z,1.35
2019-02-09T00:34:36.110Z,1.23
2019-02-09T00:37:04.619Z,1.17
2019-02-09T00:39:40.812Z,1.09
2019-02-09T00:42:13.908Z,1.08
2019-02-09T00:45:01.793Z,1.09
2019-02-09T00:47:30.314Z,1.08
2019-02-09T00:50:03.533Z,1.03
2019-02-09T00:52:32.929Z,0.94
2019-02-09T00:55:03.423Z,0.93
2019-02-09T00:57:31.950Z,0.97
2019-02-09T01:00:20.263Z,0.97
2019-02-09T01:03:13.001Z,1.09
2019-02-09T01:06:05.959Z,1.22
2019-02-09T01:08:48.640Z,1.23
2019-02-09T01:11:17.563Z,1.38
2019-02-09T01:14:05.524Z,1.44
2019-02-09T01:16:37.038Z,1.64
2019-02-09T01:19:13.135Z,1.77
2019-02-09T01:22:00.991Z,1.81
2019-02-09T01:24:30.045Z,1.92
2019-02-09T01:26:58.578Z,1.85
2019-02-09T01:29:27.087Z,1.77
2019-02-09T01:32:03.294Z,1.82
2019-02-09T01:34:31.823Z,1.64
2019-02-09T01:37:00.713Z,1.42
2019-02-09T01:39:29.255Z,1.27
2019-02-09T01:42:10.298Z,1.15
2019-02-09T01:44:47.163Z,1.04
2019-02-09T01:47:15.731Z,0.63
2019-02-09T01:49:58.584Z,0.47
2019-02-09T01:52:40.149Z,0.44
2019-02-09T01:55:33.094Z,0.66
2019-02-09T01:58:36.711Z,0.70
2019-02-09T02:01:18.868Z,0.54
2019-02-09T02:03:47.798Z,0.37
2019-02-09T02:06:19.767Z,0.28
2019-02-09T02:08:49.183Z,0.21
2019-02-09T02:11:17.713Z,0.17
2019-02-09T02:14:00.429Z,0.11
2019-02-09T02:16:39.447Z,-0.02
2019-02-09T02:19:08.183Z,-0.06
2019-02-09T02:21:58.991Z,-0.12
2019-02-09T02:24:35.286Z,-0.04
2019-02-09T02:27:03.798Z,-0.13
2019-02-09T02:29:49.896Z,-0.18
2019-02-09T02:32:18.456Z,-0.21
2019-02-09T02:34:54.401Z,-0.07
2019-02-09T02:37:22.954Z,-0.07
2019-02-09T02:39:59.830Z,-0.28
2019-02-09T02:42:37.030Z,-0.26
2019-02-09T02:45:05.584Z,0.07
2019-02-09T02:47:38.131Z,0.23
2019-02-09T02:50:08.427Z,0.56
2019-02-09T02:52:36.955Z,0.53
2019-02-09T02:55:06.837Z,0.05
2019-02-09T02:57:37.335Z,-0.13
2019-02-09T03:00:07.571Z,0.14
2019-02-09T03:02:40.071Z,0.24
2019-02-09T03:05:08.601Z,0.20
2019-02-09T03:07:49.909Z,0.27
2019-02-09T03:16:45.162Z,1.18
2019-02-09T03:19:16.123Z,1.13
2019-02-09T03:21:50.427Z,1.15
2019-02-09T03:26:56.688Z,1.28
2019-02-09T03:29:25.724Z,1.45
2019-02-09T03:31:54.776Z,1.56
2019-02-09T03:34:30.142Z,1.68
2019-02-09T03:39:42.385Z,1.93
2019-02-09T03:44:47.142Z,2.25
2019-02-09T03:47:24.986Z,2.19
2019-02-09T03:49:54.117Z,1.87
2019-02-09T03:52:26.089Z,1.80
2019-02-09T03:54:55.572Z,2.02
2019-02-09T03:57:25.840Z,2.13
2019-02-09T03:59:54.858Z,2.20
2019-02-09T04:02:23.902Z,2.20
2019-02-09T04:04:57.679Z,2.27
2019-02-09T04:07:35.635Z,2.37
2019-02-09T04:10:08.538Z,2.41
2019-02-09T04:12:40.529Z,2.38
2019-02-09T04:15:09.579Z,2.49
2019-02-09T04:17:40.531Z,2.64
2019-02-09T04:20:18.882Z,2.76
2019-02-09T04:22:47.940Z,2.83
2019-02-09T04:27:59.879Z,3.11
2019-02-09T04:30:40.118Z,3.04
2019-02-09T04:33:09.649Z,3.07
2019-02-09T04:35:40.629Z,3.26
2019-02-09T04:38:11.578Z,3.42
2019-02-09T04:40:40.692Z,3.44
2019-02-09T04:45:45.892Z,3.42
2019-02-09T04:48:47.572Z,3.46
2019-02-09T04:53:53.020Z,3.43
2019-02-09T04:56:24.052Z,3.51
2019-02-09T04:58:53.518Z,3.60
2019-02-09T05:03:58.247Z,3.72
2019-02-09T05:09:24.946Z,3.71
2019-02-09T05:11:54.388Z,3.63
2019-02-09T05:14:31.701Z,3.53
2019-02-09T05:17:28.142Z,3.76
2019-02-09T05:19:57.180Z,3.64
2019-02-09T05:22:40.256Z,3.62
2019-02-09T05:25:22.679Z,3.54
2019-02-09T05:27:51.787Z,3.63
2019-02-09T05:30:21.631Z,3.62
2019-02-09T05:38:06.421Z,3.68
2019-02-09T05:40:37.419Z,3.65
2019-02-09T05:43:14.956Z,3.60
2019-02-09T05:45:44.003Z,3.75
2019-02-09T05:48:17.739Z,3.77
2019-02-09T05:50:47.194Z,3.66
2019-02-09T05:53:29.909Z,4.44
2019-02-09T05:56:21.000Z,5.10
2019-02-09T05:58:50.742Z,5.34
2019-02-09T06:03:55.306Z,5.56
2019-02-09T06:09:34.089Z,5.67
2019-02-09T06:12:04.055Z,5.73
2019-02-09T06:14:51.892Z,5.74
2019-02-09T06:17:24.610Z,5.62
2019-02-09T06:19:53.749Z,5.57
2019-02-09T06:24:58.531Z,5.87
2019-02-09T06:27:28.053Z,5.75
2019-02-09T06:29:57.318Z,5.87
2019-02-09T06:32:26.372Z,5.75
2019-02-09T06:34:55.559Z,5.68
2019-02-09T06:37:40.595Z,5.55
2019-02-09T06:40:40.686Z,5.47
2019-02-09T06:45:45.405Z,5.66
2019-02-09T06:48:36.244Z,5.79
2019-02-09T06:53:43.015Z,5.83
2019-02-09T06:58:47.754Z,6.27
2019-02-09T07:03:52.474Z,6.51
2019-02-09T07:06:39.868Z,6.20
2019-02-09T07:09:10.437Z,6.01
2019-02-09T07:14:15.681Z,5.96
2019-02-09T07:16:55.660Z,6.06
2019-02-09T07:19:26.134Z,5.82
2019-02-09T07:24:29.506Z,5.80
2019-02-09T07:26:58.539Z,5.81
2019-02-09T07:29:28.136Z,5.89
2019-02-09T07:32:10.934Z,6.12
2019-02-09T07:34:39.975Z,6.01
2019-02-09T07:37:21.177Z,6.19
2019-02-09T07:39:54.056Z,6.11
2019-02-09T07:42:23.616Z,6.10
2019-02-09T07:44:55.174Z,5.93
2019-02-09T07:47:24.214Z,5.97
2019-02-09T07:49:54.251Z,6.15
2019-02-09T07:52:23.294Z,6.25
2019-02-09T07:55:07.433Z,6.15
2019-02-09T07:57:36.523Z,6.12
2019-02-09T08:00:33.205Z,5.90
2019-02-09T08:03:02.239Z,5.85
2019-02-09T08:05:32.308Z,5.91
2019-02-09T08:10:39.046Z,6.16
2019-02-09T08:13:08.071Z,6.27
2019-02-09T08:15:37.131Z,6.38
2019-02-09T08:18:06.152Z,6.56
2019-02-09T08:20:35.657Z,6.78
2019-02-09T08:23:21.328Z,7.05
2019-02-09T08:25:50.451Z,7.23
2019-02-09T08:28:20.678Z,7.20
2019-02-09T08:33:26.419Z,6.94
2019-02-09T08:36:12.363Z,6.95
2019-02-09T08:38:42.399Z,6.62
2019-02-09T08:43:47.190Z,6.57
2019-02-09T08:46:18.267Z,6.68
2019-02-09T08:48:47.319Z,6.82
2019-02-09T08:51:18.376Z,6.82
2019-02-09T08:53:48.008Z,6.77
2019-02-09T08:56:17.055Z,6.76
2019-02-09T08:58:47.001Z,6.61
2019-02-09T09:01:20.163Z,6.69
2019-02-09T09:03:49.232Z,6.77
2019-02-09T09:06:25.191Z,6.73
2019-02-09T09:08:54.390Z,6.72
2019-02-09T09:11:23.436Z,7.11
2019-02-09T09:13:54.575Z,8.15
2019-02-09T09:16:23.623Z,8.93
2019-02-09T09:18:57.361Z,9.67
2019-02-09T09:21:26.411Z,9.91
2019-02-09T09:23:57.429Z,10.49
2019-02-09T09:29:23.722Z,10.26
2019-02-09T09:32:04.713Z,8.85
2019-02-09T09:34:48.380Z,8.09
2019-02-09T09:37:29.975Z,7.76
2019-02-09T09:40:11.128Z,7.42
2019-02-09T09:42:54.045Z,8.99
2019-02-09T09:45:40.623Z,9.07
2019-02-09T09:50:57.169Z,11.03
2019-02-09T09:56:25.512Z,10.49
2019-02-09T09:59:05.938Z,10.36
2019-02-09T10:04:35.712Z,10.33
2019-02-09T10:07:16.723Z,10.52
2019-02-09T10:09:46.406Z,10.95
2019-02-09T10:12:15.862Z,10.72
2019-02-09T10:14:44.925Z,11.71
2019-02-09T10:17:14.169Z,11.91
2019-02-09T10:19:46.507Z,11.39
2019-02-09T10:22:15.570Z,11.82
2019-02-09T10:24:45.159Z,11.49
2019-02-09T10:27:14.263Z,11.93
2019-02-09T10:32:26.053Z,12.20
2019-02-09T10:37:31.372Z,11.49
2019-02-09T10:40:01.408Z,12.32
2019-02-09T10:42:32.436Z,13.12
2019-02-09T10:47:37.211Z,11.74
2019-02-09T10:50:16.443Z,11.82
2019-02-09T10:52:54.615Z,12.04
2019-02-09T10:55:26.306Z,12.43
2019-02-09T10:57:56.539Z,11.59
2019-02-09T11:00:29.571Z,11.85
2019-02-09T11:02:58.733Z,11.77
2019-02-09T11:05:33.223Z,12.20
2019-02-09T11:08:04.316Z,11.96
2019-02-09T11:10:43.099Z,11.64
2019-02-09T11:13:12.310Z,11.25
2019-02-09T11:15:43.247Z,11.05
2019-02-09T11:18:12.303Z,10.57
2019-02-09T11:21:02.274Z,10.40
2019-02-09T11:23:31.789Z,10.79
2019-02-09T11:26:04.091Z,10.61
2019-02-09T11:28:37.804Z,10.44
2019-02-09T11:33:42.593Z,10.03
2019-02-09T11:36:12.154Z,10.05
2019-02-09T11:38:46.504Z,10.28
2019-02-09T11:41:15.674Z,10.90
2019-02-09T11:43:44.820Z,11.51
2019-02-09T11:46:13.887Z,12.04
2019-02-09T11:48:43.502Z,12.26
2019-02-09T11:51:12.650Z,12.38
2019-02-09T11:53:42.735Z,11.49
2019-02-09T11:56:12.336Z,11.63
2019-02-09T11:58:41.452Z,12.48
2019-02-09T12:01:10.506Z,12.01
2019-02-09T12:03:39.563Z,10.72
2019-02-09T12:06:08.764Z,12.03
2019-02-09T12:08:39.243Z,12.04
2019-02-09T12:11:08.290Z,12.84
2019-02-09T12:13:37.466Z,12.86
2019-02-09T12:16:07.465Z,12.86
2019-02-09T12:18:36.510Z,12.73
2019-02-09T12:21:14.753Z,12.19
2019-02-09T12:23:44.081Z,12.74
2019-02-09T12:26:13.167Z,12.91
2019-02-09T12:28:50.005Z,12.37
2019-02-09T12:31:19.075Z,11.58
2019-02-09T12:33:48.126Z,12.21
2019-02-09T12:38:53.754Z,11.68
2019-02-09T12:44:00.449Z,11.63
2019-02-09T12:46:33.648Z,11.63
2019-02-09T12:49:02.682Z,11.76
2019-02-09T12:51:31.716Z,11.93
2019-02-09T12:54:01.330Z,11.29
2019-02-09T12:56:30.411Z,11.50
2019-02-09T12:58:59.456Z,11.58
2019-02-09T13:01:32.123Z,11.93
2019-02-09T13:04:01.184Z,11.83
2019-02-09T13:09:09.191Z,10.88
2019-02-09T13:11:40.172Z,11.75
2019-02-09T13:14:09.873Z,11.97
2019-02-09T13:19:14.672Z,10.53
2019-02-09T13:21:43.731Z,10.13
2019-02-09T13:24:12.763Z,9.85
2019-02-09T13:26:47.101Z,9.49
2019-02-09T13:29:16.167Z,9.42
2019-02-09T13:31:56.290Z,9.47
2019-02-09T13:34:29.200Z,9.72
2019-02-09T13:36:58.272Z,9.33
2019-02-09T13:39:29.008Z,9.30
2019-02-09T13:41:59.031Z,9.35
2019-02-09T13:44:28.128Z,9.20
2019-02-09T13:47:08.959Z,9.55
2019-02-09T13:52:16.037Z,9.38
2019-02-09T13:54:56.058Z,9.45
2019-02-09T13:57:25.220Z,9.55
2019-02-09T13:59:54.874Z,9.48
2019-02-09T14:02:29.480Z,9.32
2019-02-09T14:05:01.768Z,9.40
2019-02-09T14:07:48.121Z,9.31
2019-02-09T14:10:27.453Z,9.37
2019-02-09T14:15:35.954Z,9.21
2019-02-09T14:18:07.045Z,9.14
2019-02-09T14:20:36.091Z,9.37
2019-02-09T14:23:05.127Z,9.17
2019-02-09T14:25:35.966Z,9.09
2019-02-09T14:28:05.050Z,9.19
2019-02-09T14:30:38.348Z,9.04
2019-02-09T14:33:15.351Z,9.03
2019-02-09T14:35:45.378Z,9.05
2019-02-09T14:38:14.905Z,8.96
2019-02-09T14:40:45.874Z,9.02
2019-02-09T14:43:14.973Z,8.92
2019-02-09T14:45:44.646Z,8.93
2019-02-09T14:48:13.793Z,8.95
2019-02-09T14:50:42.867Z,8.90
2019-02-09T14:53:15.111Z,8.94
2019-02-09T14:58:30.404Z,8.82
2019-02-09T15:01:04.059Z,8.83
2019-02-09T15:03:38.757Z,8.77
2019-02-09T15:06:11.826Z,8.76
2019-02-09T15:08:44.803Z,8.75
2019-02-09T15:11:14.363Z,8.87
2019-02-09T15:16:21.636Z,8.41
2019-02-09T15:18:50.765Z,8.43
2019-02-09T15:21:19.791Z,8.57
2019-02-09T15:23:51.437Z,8.35
2019-02-09T15:26:20.507Z,8.27
2019-02-09T15:28:49.575Z,8.34
2019-02-09T15:31:19.465Z,8.10
2019-02-09T15:33:54.055Z,8.00
2019-02-09T15:36:24.301Z,7.99
2019-02-09T15:38:53.383Z,8.07
2019-02-09T15:41:28.275Z,8.07
2019-02-09T15:44:20.532Z,7.92
2019-02-09T15:46:50.146Z,7.81
2019-02-09T15:49:19.179Z,7.87
2019-02-09T15:54:23.909Z,7.82
2019-02-09T15:57:01.756Z,7.79
2019-02-09T15:59:30.802Z,7.67
2019-02-09T16:02:08.903Z,7.74
2019-02-09T16:04:38.881Z,7.65
2019-02-09T16:07:11.601Z,7.86
2019-02-09T16:09:41.311Z,7.83
2019-02-09T16:12:16.819Z,7.90
2019-02-09T16:15:05.754Z,7.90
2019-02-09T16:17:36.074Z,7.80
2019-02-09T16:20:21.487Z,7.69
2019-02-09T16:22:57.547Z,7.63
2019-02-09T16:25:26.751Z,7.44
2019-02-09T16:30:31.541Z,7.34
2019-02-09T16:33:01.588Z,7.24
2019-02-09T16:35:31.103Z,7.19
2019-02-09T16:38:04.800Z,6.97
2019-02-09T16:40:34.006Z,6.90
2019-02-09T16:45:38.746Z,6.95
2019-02-09T16:48:12.239Z,6.94
2019-02-09T16:50:41.298Z,6.82
2019-02-09T16:53:10.333Z,6.79
2019-02-09T16:55:39.912Z,6.76
2019-02-09T16:58:08.976Z,6.63
2019-02-09T17:00:44.279Z,6.48
2019-02-09T17:03:14.286Z,6.33
2019-02-09T17:05:43.325Z,6.30
2019-02-09T17:08:13.153Z,6.45
2019-02-09T17:10:42.217Z,6.48
2019-02-09T17:13:21.859Z,6.40
2019-02-09T17:18:33.479Z,6.30
2019-02-09T17:23:44.591Z,6.36
2019-02-09T17:26:15.085Z,6.37
2019-02-09T17:28:42.665Z,6.45
2019-02-09T17:32:55.726Z,6.46
2019-02-09T17:35:24.778Z,6.43
2019-02-09T17:37:53.819Z,6.31
2019-02-09T17:40:42.488Z,6.41
2019-02-09T17:43:14.836Z,6.29
2019-02-09T17:45:55.129Z,6.19
2019-02-09T17:48:45.539Z,6.11
2019-02-09T17:53:53.035Z,6.32
2019-02-09T17:56:22.244Z,6.42
2019-02-09T17:58:54.633Z,6.32
2019-02-09T18:01:23.597Z,6.51
2019-02-09T18:04:00.288Z,6.52
2019-02-09T18:06:31.255Z,6.48
2019-02-09T18:09:07.799Z,6.61
2019-02-09T18:11:36.859Z,6.61
2019-02-09T18:14:06.810Z,6.60
2019-02-09T18:16:44.159Z,6.55
2019-02-09T18:19:15.590Z,6.50
2019-02-09T18:21:46.627Z,6.51
2019-02-09T18:24:15.670Z,6.55
2019-02-09T18:26:49.413Z,6.43
2019-02-09T18:29:18.455Z,6.34
2019-02-09T18:31:51.742Z,6.30
2019-02-09T18:34:20.830Z,6.30
2019-02-09T18:37:07.486Z,6.20
2019-02-09T18:40:08.113Z,6.21
2019-02-09T18:45:16.102Z,6.34
2019-02-09T18:47:54.298Z,6.37
2019-02-09T18:50:24.228Z,6.26
2019-02-09T18:53:04.651Z,6.33
2019-02-09T18:55:42.961Z,6.29
2019-02-09T18:58:13.049Z,6.30
2019-02-09T19:00:45.490Z,6.36
2019-02-09T19:03:14.537Z,6.38
2019-02-09T19:05:59.095Z,6.28
2019-02-09T19:08:38.278Z,6.27
2019-02-09T19:11:07.690Z,6.34
2019-02-09T19:13:36.812Z,6.26
2019-02-09T19:16:06.793Z,6.37
2019-02-09T19:19:08.066Z,6.30
2019-02-09T19:21:37.110Z,6.24
2019-02-09T19:24:07.244Z,6.17
2019-02-09T19:26:38.315Z,6.09
2019-02-09T19:29:07.561Z,6.12
2019-02-09T19:31:43.010Z,6.23
2019-02-09T19:34:12.886Z,6.12
2019-02-09T19:36:54.517Z,6.21
2019-02-09T19:39:23.554Z,6.21
2019-02-09T19:42:06.901Z,6.24
2019-02-09T19:47:12.263Z,6.20
2019-02-09T19:49:59.391Z,6.35
2019-02-09T19:52:42.092Z,6.28
2019-02-09T19:55:14.761Z,6.16
2019-02-09T20:00:29.075Z,6.17
2019-02-09T20:03:07.267Z,6.11
2019-02-09T20:05:36.303Z,6.22
2019-02-09T20:13:18.621Z,6.38
2019-02-09T20:18:23.603Z,6.47
2019-02-09T20:20:56.679Z,6.47
2019-02-09T20:23:27.122Z,6.45
2019-02-09T20:31:09.555Z,6.29
2019-02-09T20:33:46.718Z,6.46
2019-02-09T20:36:17.711Z,6.59
2019-02-09T20:39:07.925Z,6.64
2019-02-09T20:41:44.415Z,6.57
2019-02-09T20:44:13.465Z,6.65
2019-02-09T20:49:18.548Z,6.73
2019-02-09T20:51:49.539Z,6.80
2019-02-09T20:54:18.724Z,6.72
2019-02-09T20:56:50.988Z,6.74
2019-02-09T20:59:20.133Z,6.75
2019-02-09T21:04:24.880Z,7.09
2019-02-09T21:12:07.774Z,6.72
2019-02-09T21:14:36.892Z,6.62
2019-02-09T21:17:05.912Z,6.54
2019-02-09T21:19:35.852Z,6.71
2019-02-09T21:24:40.636Z,6.69
2019-02-09T21:27:09.751Z,6.63
2019-02-09T21:29:38.849Z,6.57
2019-02-09T21:32:21.250Z,6.64
2019-02-09T21:34:50.700Z,6.42
2019-02-09T21:37:19.795Z,6.50
2019-02-09T21:39:48.835Z,6.40
2019-02-09T21:42:33.510Z,6.32
2019-02-09T21:45:02.727Z,6.40
2019-02-09T21:47:32.105Z,6.35
2019-02-09T21:52:38.912Z,6.63
2019-02-09T21:55:19.646Z,6.72
2019-02-09T21:57:48.795Z,6.77
2019-02-09T22:02:55.605Z,6.69
2019-02-09T22:05:28.241Z,6.67
2019-02-09T22:07:58.327Z,6.62
2019-02-09T22:10:32.076Z,6.58
2019-02-09T22:13:11.858Z,6.57
2019-02-09T22:15:41.028Z,6.47
2019-02-09T22:18:23.638Z,6.44
2019-02-09T22:21:01.264Z,6.39
2019-02-09T22:23:30.512Z,6.42
2019-02-09T22:26:01.579Z,6.39
2019-02-09T22:28:30.582Z,6.37
2019-02-09T22:31:02.677Z,6.33
2019-02-09T22:33:32.553Z,6.33
2019-02-09T22:36:02.593Z,6.28
2019-02-09T22:38:38.883Z,6.16
2019-02-09T22:41:07.890Z,6.07
2019-02-09T22:43:59.033Z,6.07
2019-02-09T22:49:06.981Z,6.12
2019-02-09T22:54:17.614Z,6.07
2019-02-09T22:59:23.164Z,5.83
2019-02-09T23:02:03.060Z,5.67
2019-02-09T23:04:41.106Z,5.47
2019-02-09T23:07:10.147Z,5.13
2019-02-09T23:09:41.140Z,4.91
2019-02-09T23:12:13.764Z,4.83
2019-02-09T23:14:46.782Z,4.72
2019-02-09T23:17:15.823Z,4.50
2019-02-09T23:19:50.881Z,4.36
2019-02-09T23:22:19.927Z,4.27
2019-02-09T23:25:04.311Z,4.11
2019-02-09T23:27:33.425Z,4.03
2019-02-09T23:33:01.697Z,4.14
2019-02-09T23:35:30.866Z,4.11
2019-02-09T23:38:01.012Z,4.08
2019-02-09T23:40:31.033Z,4.04
2019-02-09T23:43:02.267Z,4.02
2019-02-09T23:48:15.216Z,3.96
2019-02-09T23:50:44.382Z,3.82
2019-02-09T23:53:13.421Z,3.88
2019-02-09T23:55:43.370Z,3.89
2019-02-09T23:58:12.874Z,3.96
